createdAt,value
2018-09-18T00:00:31.387Z,3.63
2018-09-18T00:02:59.482Z,4.10
2018-09-18T00:05:27.685Z,3.67
2018-09-18T00:07:55.808Z,4.40
2018-09-18T00:10:23.893Z,3.67
2018-09-18T00:12:51.994Z,3.80
2018-09-18T00:15:20.132Z,3.50
2018-09-18T00:17:48.229Z,4.10
2018-09-18T00:20:16.398Z,3.50
2018-09-18T00:22:44.592Z,3.13
2018-09-18T00:25:12.755Z,3.90
2018-09-18T00:27:40.919Z,3.77
2018-09-18T00:30:09.104Z,3.87
2018-09-18T00:32:37.183Z,4.03
2018-09-18T00:35:05.446Z,3.93
2018-09-18T00:37:33.598Z,3.70
2018-09-18T00:40:01.688Z,4.27
2018-09-18T00:42:29.851Z,4.07
2018-09-18T00:44:57.958Z,4.40
2018-09-18T00:47:26.065Z,4.57
2018-09-18T00:49:54.224Z,4.30
2018-09-18T00:52:22.392Z,4.03
2018-09-18T00:54:50.502Z,4.63
2018-09-18T00:57:18.638Z,4.80
2018-09-18T00:59:46.754Z,4.63
2018-09-18T01:02:14.901Z,4.53
2018-09-18T01:04:43.066Z,4.57
2018-09-18T01:07:11.242Z,5.10
2018-09-18T01:09:39.512Z,4.90
2018-09-18T01:12:07.674Z,5.17
2018-09-18T01:14:36.631Z,4.80
2018-09-18T01:17:04.867Z,4.80
2018-09-18T01:19:33.028Z,4.60
2018-09-18T01:22:01.114Z,5.27
2018-09-18T01:24:29.289Z,4.90
2018-09-18T01:26:57.455Z,4.67
2018-09-18T01:29:25.542Z,4.93
2018-09-18T01:31:53.696Z,4.67
2018-09-18T01:34:21.798Z,4.80
2018-09-18T01:36:49.950Z,5.00
2018-09-18T01:39:18.097Z,4.97
2018-09-18T01:41:46.271Z,4.80
2018-09-18T01:44:14.368Z,5.20
2018-09-18T01:46:42.455Z,5.60
2018-09-18T01:49:10.552Z,5.60
2018-09-18T01:51:38.662Z,4.50
2018-09-18T01:54:06.992Z,5.10
2018-09-18T01:56:35.239Z,4.80
2018-09-18T01:59:03.312Z,4.67
2018-09-18T02:01:31.493Z,4.80
2018-09-18T02:03:59.641Z,4.70
2018-09-18T02:06:27.740Z,5.17
2018-09-18T02:08:55.892Z,5.07
2018-09-18T02:11:24.155Z,5.10
2018-09-18T02:13:52.255Z,4.87
2018-09-18T02:16:20.411Z,4.90
2018-09-18T02:18:48.515Z,5.10
2018-09-18T02:21:16.666Z,4.97
2018-09-18T02:23:44.768Z,4.80
2018-09-18T02:26:13.064Z,5.00
2018-09-18T02:28:41.186Z,4.70
2018-09-18T02:31:09.355Z,5.17
2018-09-18T02:33:37.470Z,4.53
2018-09-18T02:36:05.772Z,4.60
2018-09-18T02:38:34.050Z,4.90
2018-09-18T02:41:02.278Z,5.23
2018-09-18T02:43:30.651Z,4.97
2018-09-18T02:45:58.811Z,5.07
2018-09-18T02:48:26.928Z,5.37
2018-09-18T02:50:55.015Z,5.07
2018-09-18T02:53:23.161Z,5.00
2018-09-18T02:55:51.323Z,5.07
2018-09-18T02:58:19.491Z,4.50
2018-09-18T03:00:47.638Z,5.57
2018-09-18T03:03:15.763Z,5.53
2018-09-18T03:05:43.865Z,5.43
2018-09-18T03:08:12.007Z,6.60
2018-09-18T03:10:40.129Z,5.90
2018-09-18T03:13:08.237Z,6.20
2018-09-18T03:15:37.335Z,6.70
2018-09-18T03:18:05.538Z,6.50
2018-09-18T03:20:33.680Z,5.93
2018-09-18T03:23:01.797Z,6.67
2018-09-18T03:25:29.926Z,7.13
2018-09-18T03:27:58.449Z,6.70
2018-09-18T03:30:26.623Z,6.47
2018-09-18T03:32:54.807Z,6.53
2018-09-18T03:35:22.922Z,6.47
2018-09-18T03:37:51.024Z,6.00
2018-09-18T03:40:19.215Z,6.20
2018-09-18T03:42:47.346Z,7.27
2018-09-18T03:45:15.456Z,6.23
2018-09-18T03:47:43.602Z,6.30
2018-09-18T03:50:11.765Z,5.90
2018-09-18T03:52:39.941Z,5.00
2018-09-18T03:55:08.177Z,5.30
2018-09-18T03:57:36.299Z,5.20
2018-09-18T04:00:04.468Z,5.07
2018-09-18T04:02:32.581Z,5.70
2018-09-18T04:05:00.915Z,5.50
2018-09-18T04:07:29.092Z,5.10
2018-09-18T04:09:57.280Z,5.10
2018-09-18T04:12:25.445Z,5.00
2018-09-18T04:14:53.631Z,4.63
2018-09-18T04:17:22.718Z,5.17
2018-09-18T04:19:50.822Z,4.77
2018-09-18T04:22:18.996Z,4.40
2018-09-18T04:24:47.228Z,5.20
2018-09-18T04:27:15.325Z,4.97
2018-09-18T04:29:43.455Z,4.80
2018-09-18T04:32:11.559Z,5.03
2018-09-18T04:34:39.841Z,5.10
2018-09-18T04:37:08.106Z,5.47
2018-09-18T04:39:36.310Z,5.00
2018-09-18T04:42:04.529Z,4.50
2018-09-18T04:44:32.670Z,5.20
2018-09-18T04:47:00.872Z,5.10
2018-09-18T04:49:29.015Z,5.40
2018-09-18T04:51:57.117Z,4.87
2018-09-18T04:54:25.271Z,5.03
2018-09-18T04:56:53.404Z,4.97
2018-09-18T04:59:21.527Z,5.57
2018-09-18T05:01:49.798Z,5.73
2018-09-18T05:04:18.016Z,4.87
2018-09-18T05:06:46.299Z,4.87
2018-09-18T05:09:14.441Z,5.30
2018-09-18T05:11:42.642Z,5.13
2018-09-18T05:14:10.752Z,5.20
2018-09-18T05:16:38.872Z,5.20
2018-09-18T05:19:06.979Z,5.40
2018-09-18T05:21:35.139Z,5.50
2018-09-18T05:24:03.391Z,5.50
2018-09-18T05:26:31.486Z,5.23
2018-09-18T05:28:59.735Z,4.70
2018-09-18T05:31:27.913Z,5.47
2018-09-18T05:33:56.099Z,4.57
2018-09-18T05:36:24.367Z,5.63
2018-09-18T05:38:52.519Z,5.23
2018-09-18T05:41:20.624Z,5.47
2018-09-18T05:43:48.764Z,5.10
2018-09-18T05:46:16.929Z,5.00
2018-09-18T05:48:45.043Z,5.13
2018-09-18T05:51:13.166Z,5.33
2018-09-18T05:53:41.288Z,5.33
2018-09-18T05:56:09.448Z,4.67
2018-09-18T05:58:37.624Z,5.40
2018-09-18T06:01:05.722Z,5.70
2018-09-18T06:03:33.807Z,4.70
2018-09-18T06:06:01.941Z,4.80
2018-09-18T06:08:30.064Z,4.80
2018-09-18T06:10:58.183Z,5.40
2018-09-18T06:13:26.328Z,5.17
2018-09-18T06:15:54.430Z,4.90
2018-09-18T06:18:22.526Z,4.83
2018-09-18T06:20:50.691Z,5.50
2018-09-18T06:23:18.841Z,5.50
2018-09-18T06:25:47.127Z,5.23
2018-09-18T06:28:15.311Z,4.97
2018-09-18T06:30:43.472Z,4.70
2018-09-18T06:33:11.709Z,4.00
2018-09-18T06:35:39.835Z,4.70
2018-09-18T06:38:08.038Z,4.67
2018-09-18T06:40:36.158Z,4.73
2018-09-18T06:43:04.278Z,5.10
2018-09-18T06:45:32.425Z,4.90
2018-09-18T06:48:00.580Z,4.50
2018-09-18T06:50:28.646Z,5.07
2018-09-18T06:52:56.795Z,5.20
2018-09-18T06:55:25.003Z,4.57
2018-09-18T06:57:53.153Z,4.47
2018-09-18T07:00:21.328Z,4.20
2018-09-18T07:02:49.432Z,4.17
2018-09-18T07:05:17.582Z,4.37
2018-09-18T07:07:45.662Z,4.80
2018-09-18T07:10:13.736Z,5.30
2018-09-18T07:12:42.222Z,4.57
2018-09-18T07:15:10.362Z,4.63
2018-09-18T07:17:38.442Z,4.07
2018-09-18T07:20:06.588Z,4.30
2018-09-18T07:22:34.689Z,4.00
2018-09-18T07:25:02.763Z,4.50
2018-09-18T07:27:30.941Z,4.70
2018-09-18T07:29:59.122Z,4.27
2018-09-18T07:32:27.297Z,5.20
2018-09-18T07:34:55.374Z,4.40
2018-09-18T07:37:23.459Z,4.70
2018-09-18T07:39:51.586Z,4.27
2018-09-18T07:42:19.778Z,4.53
2018-09-18T07:44:47.959Z,4.83
2018-09-18T07:47:16.122Z,4.63
2018-09-18T07:49:44.219Z,4.30
2018-09-18T07:52:12.408Z,4.80
2018-09-18T07:54:40.530Z,4.53
2018-09-18T07:57:08.619Z,4.80
2018-09-18T07:59:36.786Z,4.80
2018-09-18T08:02:04.866Z,4.27
2018-09-18T08:04:33.046Z,5.20
2018-09-18T08:07:01.242Z,5.17
2018-09-18T08:09:29.395Z,5.20
2018-09-18T08:11:57.482Z,4.97
2018-09-18T08:14:25.615Z,5.60
2018-09-18T08:16:53.709Z,6.10
2018-09-18T08:19:21.907Z,5.90
2018-09-18T08:21:50.277Z,5.50
2018-09-18T08:24:18.361Z,5.53
2018-09-18T08:26:46.510Z,5.77
2018-09-18T08:29:14.662Z,5.67
2018-09-18T08:31:42.841Z,5.10
2018-09-18T08:34:10.923Z,5.93
2018-09-18T08:36:39.079Z,5.73
2018-09-18T08:39:08.012Z,5.73
2018-09-18T08:41:36.289Z,5.33
2018-09-18T08:44:04.463Z,5.97
2018-09-18T08:46:32.603Z,5.00
2018-09-18T08:49:00.717Z,4.77
2018-09-18T08:51:28.832Z,5.17
2018-09-18T08:53:56.909Z,5.37
2018-09-18T08:56:25.106Z,4.93
2018-09-18T08:58:53.280Z,5.40
2018-09-18T09:01:21.447Z,4.80
2018-09-18T09:03:49.539Z,4.43
2018-09-18T09:06:17.754Z,3.93
2018-09-18T09:08:46.107Z,4.47
2018-09-18T09:11:14.127Z,5.37
2018-09-18T09:13:42.668Z,4.47
2018-09-18T09:16:10.805Z,4.27
2018-09-18T09:18:39.001Z,4.30
2018-09-18T09:21:07.075Z,4.53
2018-09-18T09:23:35.144Z,4.47
2018-09-18T09:26:03.319Z,4.53
2018-09-18T09:28:31.458Z,4.17
2018-09-18T09:30:59.542Z,4.30
2018-09-18T09:33:27.647Z,4.50
2018-09-18T09:35:55.774Z,4.87
2018-09-18T09:38:23.871Z,4.80
2018-09-18T09:40:52.511Z,3.70
2018-09-18T09:43:20.653Z,4.37
2018-09-18T09:45:48.735Z,4.00
2018-09-18T09:48:16.851Z,4.73
2018-09-18T09:50:44.938Z,3.97
2018-09-18T09:53:13.011Z,4.17
2018-09-18T09:55:41.095Z,4.20
2018-09-18T09:58:09.249Z,4.80
2018-09-18T10:00:42.731Z,4.47
2018-09-18T10:03:10.918Z,4.30
2018-09-18T10:05:39.303Z,4.83
2018-09-18T10:08:07.463Z,4.57
2018-09-18T10:10:36.541Z,4.43
2018-09-18T10:13:04.667Z,4.33
2018-09-18T10:15:32.887Z,4.53
2018-09-18T10:18:01.054Z,4.87
2018-09-18T10:20:29.154Z,4.23
2018-09-18T10:22:57.270Z,4.93
2018-09-18T10:25:25.432Z,5.13
2018-09-18T10:27:53.594Z,5.23
2018-09-18T10:30:21.744Z,5.60
2018-09-18T10:32:50.703Z,5.30
2018-09-18T10:35:19.344Z,5.00
2018-09-18T10:37:47.698Z,5.97
2018-09-18T10:40:15.852Z,6.53
2018-09-18T10:42:43.962Z,5.20
2018-09-18T10:45:12.097Z,5.80
2018-09-18T10:47:40.345Z,4.83
2018-09-18T10:50:08.880Z,5.13
2018-09-18T10:52:36.999Z,4.50
2018-09-18T10:55:05.283Z,5.37
2018-09-18T10:57:33.415Z,5.53
2018-09-18T11:00:01.541Z,5.57
2018-09-18T11:02:29.670Z,5.47
2018-09-18T11:04:57.778Z,5.33
2018-09-18T11:07:25.952Z,5.70
2018-09-18T11:09:54.111Z,5.20
2018-09-18T11:12:22.251Z,5.50
2018-09-18T11:14:50.494Z,5.40
2018-09-18T11:17:18.593Z,4.87
2018-09-18T11:19:46.714Z,4.20
2018-09-18T11:22:14.853Z,5.27
2018-09-18T11:24:42.928Z,5.97
2018-09-18T11:27:11.104Z,5.10
2018-09-18T11:29:39.266Z,4.60
2018-09-18T11:32:07.408Z,5.17
2018-09-18T11:34:35.512Z,4.73
2018-09-18T11:37:03.683Z,4.70
2018-09-18T11:39:31.863Z,5.00
2018-09-18T11:42:00.039Z,5.07
2018-09-18T11:44:28.591Z,5.43
2018-09-18T11:46:56.684Z,4.90
2018-09-18T11:49:24.771Z,4.80
2018-09-18T11:51:52.850Z,5.20
2018-09-18T11:54:21.018Z,5.37
2018-09-18T11:56:49.298Z,5.30
2018-09-18T11:59:17.339Z,4.50
2018-09-18T12:01:45.536Z,4.83
2018-09-18T12:04:13.644Z,4.28
2018-09-18T12:06:41.767Z,4.70
2018-09-18T12:09:11.000Z,4.53
2018-09-18T12:11:39.444Z,4.10
2018-09-18T12:14:07.733Z,4.20
2018-09-18T12:16:35.992Z,4.00
2018-09-18T12:19:04.104Z,4.03
2018-09-18T12:21:32.348Z,4.20
2018-09-18T12:24:00.445Z,4.40
2018-09-18T12:26:28.565Z,4.20
2018-09-18T12:28:56.712Z,3.97
2018-09-18T12:31:25.043Z,3.37
2018-09-18T12:33:53.148Z,3.90
2018-09-18T12:36:21.289Z,3.70
2018-09-18T12:38:49.375Z,4.07
2018-09-18T12:41:17.593Z,3.83
2018-09-18T12:43:45.707Z,4.00
2018-09-18T12:46:13.803Z,3.80
2018-09-18T12:48:41.953Z,4.30
2018-09-18T12:51:10.031Z,4.50
2018-09-18T12:53:38.158Z,3.97
2018-09-18T12:56:06.435Z,3.90
2018-09-18T12:58:34.683Z,3.70
2018-09-18T13:01:02.689Z,3.90
2018-09-18T13:03:30.772Z,3.93
2018-09-18T13:05:59.088Z,4.67
2018-09-18T13:08:27.136Z,5.10
2018-09-18T13:10:55.266Z,6.23
2018-09-18T13:13:23.444Z,5.47
2018-09-18T13:15:51.598Z,5.67
2018-09-18T13:18:19.715Z,4.80
2018-09-18T13:20:47.856Z,4.50
2018-09-18T13:23:15.968Z,5.47
2018-09-18T13:25:44.112Z,5.60
2018-09-18T13:28:12.242Z,5.00
2018-09-18T13:30:40.395Z,5.47
2018-09-18T13:33:08.543Z,5.33
2018-09-18T13:35:37.135Z,5.00
2018-09-18T13:38:05.319Z,4.83
2018-09-18T13:40:33.470Z,4.47
2018-09-18T13:43:01.648Z,4.57
2018-09-18T13:45:29.738Z,5.20
2018-09-18T13:47:57.878Z,5.70
2018-09-18T13:50:26.056Z,4.97
2018-09-18T13:52:54.534Z,4.03
2018-09-18T13:55:22.715Z,5.10
2018-09-18T13:57:50.787Z,4.90
2018-09-18T14:00:18.968Z,3.90
2018-09-18T14:02:47.127Z,5.03
2018-09-18T14:05:15.305Z,5.27
2018-09-18T14:07:43.703Z,4.13
2018-09-18T14:10:13.683Z,4.53
2018-09-18T14:12:41.784Z,4.90
2018-09-18T14:15:09.912Z,5.47
2018-09-18T14:17:38.034Z,5.17
2018-09-18T14:20:06.586Z,5.83
2018-09-18T14:22:35.490Z,5.47
2018-09-18T14:25:03.616Z,4.83
2018-09-18T14:27:31.712Z,4.67
2018-09-18T14:29:59.912Z,4.60
2018-09-18T14:32:28.036Z,5.03
2018-09-18T14:34:56.310Z,5.10
2018-09-18T14:37:24.430Z,5.33
2018-09-18T14:39:53.020Z,4.50
2018-09-18T14:42:21.188Z,5.77
2018-09-18T14:44:49.302Z,4.80
2018-09-18T14:47:17.433Z,5.13
2018-09-18T14:49:45.690Z,5.67
2018-09-18T14:52:13.841Z,5.40
2018-09-18T14:54:42.064Z,5.10
2018-09-18T14:57:10.240Z,4.67
2018-09-18T14:59:38.343Z,4.43
2018-09-18T15:02:06.511Z,5.57
2018-09-18T15:04:34.667Z,5.47
2018-09-18T15:07:02.903Z,6.40
2018-09-18T15:09:31.000Z,6.60
2018-09-18T15:11:59.134Z,6.63
2018-09-18T15:14:27.380Z,5.67
2018-09-18T15:16:55.684Z,6.13
2018-09-18T15:19:23.980Z,4.93
2018-09-18T15:21:52.259Z,5.77
2018-09-18T15:24:20.430Z,6.00
2018-09-18T15:26:48.639Z,5.47
2018-09-18T15:29:16.763Z,5.37
2018-09-18T15:31:44.872Z,6.37
2018-09-18T15:34:13.004Z,5.87
2018-09-18T15:36:41.149Z,5.60
2018-09-18T15:39:09.567Z,5.70
2018-09-18T15:41:37.777Z,4.90
2018-09-18T15:44:05.925Z,5.63
2018-09-18T15:46:34.395Z,6.30
2018-09-18T15:49:02.509Z,5.13
2018-09-18T15:51:30.735Z,5.03
2018-09-18T15:53:58.834Z,5.00
2018-09-18T15:56:26.960Z,4.63
2018-09-18T15:58:55.061Z,4.73
2018-09-18T16:01:23.314Z,5.03
2018-09-18T16:03:51.583Z,4.83
2018-09-18T16:06:19.914Z,4.87
2018-09-18T16:08:48.069Z,5.13
2018-09-18T16:11:16.184Z,5.77
2018-09-18T16:13:44.357Z,5.30
2018-09-18T16:16:12.541Z,5.43
2018-09-18T16:18:40.761Z,5.20
2018-09-18T16:21:08.880Z,5.27
2018-09-18T16:23:37.012Z,5.20
2018-09-18T16:26:05.207Z,5.77
2018-09-18T16:28:33.336Z,5.50
2018-09-18T16:31:01.643Z,5.40
2018-09-18T16:33:29.802Z,5.53
2018-09-18T16:35:57.968Z,6.10
2018-09-18T16:38:26.304Z,6.10
2018-09-18T16:40:54.456Z,5.50
2018-09-18T16:43:22.569Z,5.57
2018-09-18T16:45:50.815Z,5.00
2018-09-18T16:48:18.976Z,5.90
2018-09-18T16:50:47.114Z,6.27
2018-09-18T16:53:15.224Z,5.63
2018-09-18T16:55:43.388Z,5.63
2018-09-18T16:58:11.506Z,5.37
2018-09-18T17:00:39.736Z,6.10
2018-09-18T17:03:07.778Z,5.97
2018-09-18T17:05:35.922Z,7.13
2018-09-18T17:08:04.065Z,5.53
2018-09-18T17:10:32.287Z,5.67
2018-09-18T17:13:00.392Z,5.43
2018-09-18T17:15:28.565Z,5.73
2018-09-18T17:17:56.755Z,5.43
2018-09-18T17:20:24.941Z,6.10
2018-09-18T17:22:53.090Z,5.90
2018-09-18T17:25:21.285Z,5.93
2018-09-18T17:27:49.507Z,5.87
2018-09-18T17:30:17.735Z,5.10
2018-09-18T17:32:45.929Z,6.13
2018-09-18T17:35:14.022Z,6.57
2018-09-18T17:37:42.209Z,6.40
2018-09-18T17:40:10.386Z,6.23
2018-09-18T17:42:38.508Z,5.37
2018-09-18T17:45:07.263Z,5.97
2018-09-18T17:47:35.710Z,6.00
2018-09-18T17:50:03.887Z,5.73
2018-09-18T17:52:32.017Z,6.80
2018-09-18T17:55:00.163Z,6.00
2018-09-18T17:57:28.263Z,4.80
2018-09-18T17:59:56.463Z,6.63
2018-09-18T18:02:24.635Z,4.60
2018-09-18T18:04:52.959Z,5.37
2018-09-18T18:07:21.145Z,4.67
2018-09-18T18:09:49.331Z,3.53
2018-09-18T18:12:17.464Z,4.50
2018-09-18T18:14:45.668Z,4.43
2018-09-18T18:17:13.779Z,3.90
2018-09-18T18:19:41.919Z,3.77
2018-09-18T18:22:10.026Z,3.93
2018-09-18T18:24:38.204Z,3.77
2018-09-18T18:27:06.381Z,3.87
2018-09-18T18:29:35.327Z,3.73
2018-09-18T18:32:04.189Z,4.53
2018-09-18T18:34:32.429Z,3.23
2018-09-18T18:37:00.804Z,3.97
2018-09-18T18:39:28.961Z,3.80
2018-09-18T18:41:57.602Z,4.13
2018-09-18T18:44:26.050Z,3.53
2018-09-18T18:46:54.872Z,3.93
2018-09-18T18:49:23.100Z,3.33
2018-09-18T18:51:53.154Z,3.73
2018-09-18T18:54:21.842Z,4.23
2018-09-18T18:56:50.117Z,4.63
2018-09-18T18:59:18.254Z,3.97
2018-09-18T19:01:46.411Z,4.43
2018-09-18T19:04:14.607Z,4.50
2018-09-18T19:06:42.833Z,4.27
2018-09-18T19:09:10.941Z,4.30
2018-09-18T19:11:39.123Z,4.23
2018-09-18T19:14:07.286Z,4.00
2018-09-18T19:16:35.652Z,4.30
2018-09-18T19:19:03.842Z,3.97
2018-09-18T19:21:32.176Z,4.43
2018-09-18T19:24:00.320Z,4.70
2018-09-18T19:26:28.442Z,4.43
2018-09-18T19:28:56.534Z,3.93
2018-09-18T19:31:24.653Z,3.77
2018-09-18T19:33:52.877Z,3.80
2018-09-18T19:36:21.062Z,3.77
2018-09-18T19:38:49.320Z,3.83
2018-09-18T19:41:17.515Z,4.10
2018-09-18T19:43:45.679Z,4.53
2018-09-18T19:46:13.864Z,5.07
2018-09-18T19:48:42.036Z,4.07
2018-09-18T19:51:10.405Z,4.63
2018-09-18T19:53:38.566Z,3.90
2018-09-18T19:56:06.874Z,3.43
2018-09-18T19:58:35.012Z,3.67
2018-09-18T20:01:03.204Z,4.30
2018-09-18T20:03:31.356Z,4.40
2018-09-18T20:05:59.574Z,4.23
2018-09-18T20:08:27.756Z,4.37
2018-09-18T20:10:55.934Z,4.50
2018-09-18T20:13:24.072Z,3.60
2018-09-18T20:15:52.274Z,4.70
2018-09-18T20:18:20.752Z,3.90
2018-09-18T20:20:48.986Z,3.90
2018-09-18T20:23:17.104Z,3.73
2018-09-18T20:25:45.423Z,3.73
2018-09-18T20:28:13.542Z,4.50
2018-09-18T20:30:41.725Z,4.20
2018-09-18T20:33:10.104Z,4.13
2018-09-18T20:35:38.385Z,3.67
2018-09-18T20:38:06.650Z,3.60
2018-09-18T20:40:34.938Z,3.83
2018-09-18T20:43:03.066Z,3.67
2018-09-18T20:45:31.259Z,3.43
2018-09-18T20:47:59.463Z,3.30
2018-09-18T20:50:27.617Z,3.20
2018-09-18T20:52:56.478Z,3.00
2018-09-18T20:55:24.679Z,3.30
2018-09-18T20:57:52.937Z,2.73
2018-09-18T21:00:21.042Z,3.00
2018-09-18T21:02:49.205Z,4.07
2018-09-18T21:05:17.352Z,2.90
2018-09-18T21:07:45.587Z,3.90
2018-09-18T21:10:13.755Z,2.80
2018-09-18T21:12:41.897Z,3.33
2018-09-18T21:15:10.071Z,3.17
2018-09-18T21:17:38.307Z,3.73
2018-09-18T21:20:06.455Z,3.43
2018-09-18T21:22:34.610Z,3.40
2018-09-18T21:25:10.939Z,2.77
2018-09-18T21:27:39.138Z,2.90
2018-09-18T21:30:07.250Z,3.10
2018-09-18T21:32:35.528Z,3.17
2018-09-18T21:35:03.650Z,2.97
2018-09-18T21:37:32.119Z,2.70
2018-09-18T21:40:00.237Z,2.50
2018-09-18T21:42:28.376Z,2.40
2018-09-18T21:44:56.607Z,2.30
2018-09-18T21:47:24.739Z,2.43
2018-09-18T21:49:52.859Z,2.40
2018-09-18T21:52:21.077Z,2.60
2018-09-18T21:54:49.175Z,2.33
2018-09-18T21:57:17.350Z,2.00
2018-09-18T21:59:45.461Z,2.30
2018-09-18T22:02:13.547Z,2.53
2018-09-18T22:04:41.738Z,2.87
2018-09-18T22:07:09.977Z,2.30
2018-09-18T22:09:38.100Z,2.13
2018-09-18T22:12:06.283Z,2.03
2018-09-18T22:14:34.573Z,2.83
2018-09-18T22:17:02.713Z,2.43
2018-09-18T22:19:30.906Z,2.50
2018-09-18T22:21:59.036Z,2.70
2018-09-18T22:24:27.363Z,2.60
2018-09-18T22:26:55.481Z,2.20
2018-09-18T22:29:24.095Z,2.17
2018-09-18T22:31:52.174Z,2.23
2018-09-18T22:34:20.297Z,2.33
2018-09-18T22:36:48.386Z,2.07
2018-09-18T22:39:16.497Z,2.60
2018-09-18T22:41:44.585Z,2.53
2018-09-18T22:44:12.772Z,2.43
2018-09-18T22:46:40.909Z,2.20
2018-09-18T22:49:09.054Z,2.63
2018-09-18T22:51:37.164Z,2.00
2018-09-18T22:54:05.308Z,2.60
2018-09-18T22:56:33.509Z,2.27
2018-09-18T22:59:01.598Z,2.53
2018-09-18T23:01:29.730Z,2.60
2018-09-18T23:03:57.818Z,2.60
2018-09-18T23:06:26.011Z,2.33
2018-09-18T23:08:54.105Z,2.90
2018-09-18T23:11:22.206Z,2.53
2018-09-18T23:13:50.414Z,2.40
2018-09-18T23:16:18.580Z,2.93
2018-09-18T23:18:46.809Z,2.70
2018-09-18T23:21:14.946Z,2.70
2018-09-18T23:23:43.198Z,2.70
2018-09-18T23:26:11.374Z,2.17
2018-09-18T23:28:39.482Z,2.67
2018-09-18T23:31:07.635Z,2.63
2018-09-18T23:33:35.715Z,2.70
2018-09-18T23:36:04.148Z,2.90
2018-09-18T23:38:32.541Z,2.20
2018-09-18T23:41:00.992Z,2.90
2018-09-18T23:43:29.374Z,2.60
2018-09-18T23:45:57.834Z,2.80
2018-09-18T23:48:26.229Z,2.67
2018-09-18T23:50:54.691Z,2.57
2018-09-18T23:53:23.178Z,2.77
2018-09-18T23:55:51.604Z,2.83
2018-09-18T23:58:20.020Z,2.70
